Time;durP1;ratioP1;P1;durP2;ratioP2;P2;SDS_P1;SDS_P2;PMS_P1;PMS_P2;Temp;Humidity;BMP_temperature;BMP_pressure;BME280_temperature;BME280_humidity;BME280_pressure;Samples;Min_cycle;Max_cycle;Signal;HPM_P1;HPM_P2
2023/12/18 00:01:46;;;;;;;0.50;0.50;;;;;;;2.11;100.00;101073.41;5096639;28;20116;-60
2023/12/18 00:04:13;;;;;;;0.60;0.60;;;;;;;2.15;100.00;101082.75;5091633;28;20082;-59
2023/12/18 00:06:40;;;;;;;0.50;0.50;;;;;;;2.11;100.00;101085.81;5088211;28;20040;-59
2023/12/18 00:09:07;;;;;;;0.60;0.60;;;;;;;2.16;100.00;101094.97;5091157;28;20047;-59
2023/12/18 00:11:37;;;;;;;0.75;0.75;;;;;;;2.06;100.00;101091.50;5086949;28;20171;-59
2023/12/18 00:14:04;;;;;;;0.60;0.60;;;;;;;2.04;100.00;101084.69;5094757;28;20070;-59
2023/12/18 00:16:32;;;;;;;0.60;0.60;;;;;;;2.02;100.00;101068.13;5090456;28;20036;-59
2023/12/18 00:18:59;;;;;;;0.70;0.70;;;;;;;2.06;100.00;101061.59;5074998;28;20105;-60
2023/12/18 00:21:29;;;;;;;0.70;0.70;;;;;;;2.08;100.00;101052.53;5097011;28;20302;-58
2023/12/18 00:23:56;;;;;;;;;;;;;;;2.11;100.00;101052.25;5077094;28;20130;-59
2023/12/18 00:26:27;;;;;;;0.50;0.50;;;;;;;2.09;100.00;101050.72;5090642;28;19924;-59
2023/12/18 00:28:56;;;;;;;0.75;0.75;;;;;;;2.09;100.00;101050.72;5091835;28;20039;-58
2023/12/18 00:31:25;;;;;;;0.70;0.70;;;;;;;2.15;100.00;101043.06;5093690;28;20040;-58
2023/12/18 00:33:52;;;;;;;0.73;0.73;;;;;;;2.13;100.00;101049.47;5089286;28;20631;-59
2023/12/18 00:36:20;;;;;;;0.68;0.68;;;;;;;2.12;100.00;101043.34;5089315;28;20040;-58
2023/12/18 00:38:47;;;;;;;0.68;0.68;;;;;;;2.12;100.00;101056.56;5093572;28;20393;-59
2023/12/18 00:41:14;;;;;;;0.70;0.70;;;;;;;2.07;100.00;101048.22;5074316;28;20044;-58
2023/12/18 00:43:42;;;;;;;0.60;0.60;;;;;;;2.16;100.00;101057.13;5088405;28;20036;-58
2023/12/18 00:46:10;;;;;;;0.50;0.50;;;;;;;2.05;100.00;101065.22;5091080;28;20051;-59
2023/12/18 00:48:38;;;;;;;0.60;0.60;;;;;;;1.98;100.00;101059.66;5097642;28;20044;-58
2023/12/18 00:51:05;;;;;;;0.60;0.60;;;;;;;1.92;100.00;101054.91;5095963;28;20505;-59
2023/12/18 00:53:32;;;;;;;0.70;0.70;;;;;;;1.92;100.00;101049.63;5081638;28;20063;-59
2023/12/18 00:56:00;;;;;;;0.70;0.70;;;;;;;1.92;100.00;101061.06;5087543;28;20134;-59
2023/12/18 00:58:27;;;;;;;0.70;0.70;;;;;;;1.86;100.00;101056.31;5095574;28;20232;-59
2023/12/18 01:00:55;;;;;;;0.70;0.70;;;;;;;1.89;100.00;101066.63;5097489;28;20100;-59
2023/12/18 01:03:23;;;;;;;0.60;0.60;;;;;;;1.80;100.00;101062.19;5076360;28;20055;-59
2023/12/18 01:05:50;;;;;;;0.60;0.60;;;;;;;1.79;100.00;101055.22;5094085;28;20062;-59
2023/12/18 01:08:17;;;;;;;0.70;0.70;;;;;;;1.77;100.00;101041.28;5096531;28;20101;-58
2023/12/18 01:10:44;;;;;;;0.60;0.60;;;;;;;1.75;100.00;101048.56;5088448;28;20039;-58
2023/12/18 01:13:12;;;;;;;0.70;0.70;;;;;;;1.77;100.00;101049.22;5097724;28;20586;-58
2023/12/18 01:15:39;;;;;;;0.60;0.60;;;;;;;1.73;100.00;101039.94;5098127;28;20152;-58
2023/12/18 01:18:06;;;;;;;0.70;0.70;;;;;;;1.80;100.00;101037.53;5075118;28;20042;-58
2023/12/18 01:20:38;;;;;;;0.60;0.60;;;;;;;1.67;100.00;101038.69;5092876;28;20134;-58
2023/12/18 01:23:05;;;;;;;0.73;0.73;;;;;;;1.64;100.00;101035.47;5075568;28;20035;-59
2023/12/18 01:25:32;;;;;;;0.60;0.60;;;;;;;1.63;100.00;101034.66;5095777;28;20478;-58
2023/12/18 01:28:00;;;;;;;0.68;0.68;;;;;;;1.57;100.00;101029.06;5074144;28;20039;-58
2023/12/18 01:30:27;;;;;;;0.70;0.70;;;;;;;1.54;100.00;101037.28;5097367;28;20047;-59
2023/12/18 01:32:54;;;;;;;0.60;0.60;;;;;;;1.54;100.00;101030.19;5069672;28;20121;-58
2023/12/18 01:35:21;;;;;;;0.50;0.50;;;;;;;1.54;100.00;101032.00;5072501;28;20141;-59
2023/12/18 01:37:49;;;;;;;0.70;0.70;;;;;;;1.59;100.00;101049.09;5088636;28;20636;-58
2023/12/18 01:40:16;;;;;;;0.60;0.60;;;;;;;1.49;100.00;101049.09;5097195;28;20040;-59
2023/12/18 01:42:44;;;;;;;0.70;0.70;;;;;;;1.45;100.00;101046.91;5097427;28;20101;-59
2023/12/18 01:45:11;;;;;;;0.77;0.77;;;;;;;1.39;100.00;101036.88;5092167;28;20054;-62
2023/12/18 01:47:39;;;;;;;0.70;0.70;;;;;;;1.37;100.00;101044.91;5089188;28;20032;-59
2023/12/18 01:50:07;;;;;;;0.80;0.80;;;;;;;1.38;100.00;101041.31;5096551;28;20048;-58
2023/12/18 01:52:37;;;;;;;0.50;0.50;;;;;;;1.40;100.00;101038.53;5090142;28;20047;-59
2023/12/18 01:55:07;;;;;;;0.70;0.70;;;;;;;1.43;100.00;101036.47;5091344;28;20131;-59
2023/12/18 01:57:35;;;;;;;0.77;0.77;;;;;;;1.43;100.00;101033.81;5092949;28;20134;-58
2023/12/18 02:00:02;;;;;;;0.80;0.80;;;;;;;1.47;100.00;101037.88;5095786;28;20047;-58
2023/12/18 02:02:32;;;;;;;0.60;0.60;;;;;;;1.53;100.00;101027.72;5094757;28;20150;-58
2023/12/18 02:04:59;;;;;;;0.60;0.60;;;;;;;1.54;100.00;101032.00;5091250;28;20050;-58
2023/12/18 02:07:28;;;;;;;0.60;0.60;;;;;;;1.58;100.00;101025.47;5091402;28;20184;-58
2023/12/18 02:09:55;;;;;;;0.63;0.63;;;;;;;1.62;100.00;101025.06;5094080;28;20060;-58
2023/12/18 02:12:23;;;;;;;0.50;0.50;;;;;;;1.63;100.00;101033.81;5096681;28;20445;-58
2023/12/18 02:14:52;;;;;;;0.75;0.75;;;;;;;1.67;100.00;101035.19;5094329;28;20778;-59
2023/12/18 02:17:19;;;;;;;0.70;0.70;;;;;;;1.67;100.00;101037.81;5093680;28;20048;-58
2023/12/18 02:19:47;;;;;;;0.60;0.60;;;;;;;1.64;100.00;101041.59;5093649;28;20066;-59
2023/12/18 02:22:14;;;;;;;0.68;0.68;;;;;;;1.66;100.00;101037.00;5076568;28;20044;-58
2023/12/18 02:24:42;;;;;;;0.73;0.73;;;;;;;1.63;100.00;101044.41;5089271;28;20766;-58
2023/12/18 02:27:09;;;;;;;0.63;0.63;;;;;;;1.57;100.00;101034.38;5088461;28;20058;-58
2023/12/18 02:29:39;;;;;;;0.70;0.70;;;;;;;1.50;100.00;101032.28;5088527;28;20163;-58
2023/12/18 02:32:06;;;;;;;0.60;0.60;;;;;;;1.46;100.00;101033.53;5094584;28;20043;-58
2023/12/18 02:34:33;;;;;;;0.75;0.75;;;;;;;1.41;100.00;101038.41;5093266;28;20075;-58
2023/12/18 02:37:01;;;;;;;0.60;0.60;;;;;;;1.38;100.00;101033.41;5092701;28;20066;-58
2023/12/18 02:39:28;;;;;;;0.77;0.77;;;;;;;1.36;100.00;101042.44;5100141;28;20059;-59
2023/12/18 02:41:56;;;;;;;0.70;0.70;;;;;;;1.31;100.00;101061.34;5078040;28;20066;-58
2023/12/18 02:44:23;;;;;;;0.70;0.70;;;;;;;1.30;100.00;101054.41;5094919;28;20139;-58
2023/12/18 02:46:51;;;;;;;0.70;0.70;;;;;;;1.20;100.00;101051.75;5091576;28;20080;-58
2023/12/18 02:49:18;;;;;;;0.70;0.70;;;;;;;1.14;100.00;101046.16;5093273;28;20519;-58
2023/12/18 02:51:48;;;;;;;0.65;0.65;;;;;;;1.09;100.00;101046.56;5076804;28;20567;-58
2023/12/18 02:54:15;;;;;;;0.70;0.70;;;;;;;1.10;100.00;101056.19;5069282;28;20485;-59
2023/12/18 02:56:42;;;;;;;0.60;0.60;;;;;;;1.08;100.00;101051.03;5075069;28;20055;-59
2023/12/18 02:59:10;;;;;;;0.80;0.80;;;;;;;1.03;100.00;101050.59;5090759;28;20036;-58
2023/12/18 03:01:37;;;;;;;0.70;0.70;;;;;;;1.03;100.00;101058.50;5094184;28;20048;-58
2023/12/18 03:04:05;;;;;;;0.63;0.63;;;;;;;0.96;100.00;101060.03;5087495;28;20044;-58
2023/12/18 03:06:32;;;;;;;0.60;0.60;;;;;;;0.92;100.00;101061.25;5093182;28;20043;-58
2023/12/18 03:08:59;;;;;;;0.68;0.68;;;;;;;0.87;100.00;101058.19;5090528;28;20055;-58
2023/12/18 03:11:26;;;;;;;0.50;0.50;;;;;;;0.84;100.00;101059.28;5088456;28;20040;-58
2023/12/18 03:13:54;;;;;;;0.80;0.80;;;;;;;0.79;100.00;101050.09;5093861;28;20051;-58
2023/12/18 03:16:22;;;;;;;0.60;0.60;;;;;;;0.78;100.00;101045.81;5086234;28;20375;-59
2023/12/18 03:18:49;;;;;;;0.65;0.65;;;;;;;0.74;100.00;101047.03;5067420;28;20574;-58
2023/12/18 03:21:16;;;;;;;0.70;0.70;;;;;;;0.76;100.00;101043.28;5096107;28;20116;-58
2023/12/18 03:23:44;;;;;;;0.70;0.70;;;;;;;0.71;100.00;101040.22;5088076;28;20047;-58
2023/12/18 03:26:11;;;;;;;0.70;0.70;;;;;;;0.76;100.00;101045.09;5089440;28;20200;-58
2023/12/18 03:28:38;;;;;;;0.75;0.75;;;;;;;0.79;100.00;101036.91;5098472;28;20062;-58
2023/12/18 03:31:05;;;;;;;0.88;0.88;;;;;;;0.74;100.00;101044.41;5087308;28;20424;-59
2023/12/18 03:33:34;;;;;;;0.70;0.70;;;;;;;0.77;100.00;101042.31;5086526;28;20398;-59
2023/12/18 03:36:01;;;;;;;0.63;0.63;;;;;;;0.72;100.00;101033.97;5089237;28;20059;-59
2023/12/18 03:38:36;;;;;;;0.70;0.70;;;;;;;0.75;100.00;101043.41;5097973;28;20436;-59
2023/12/18 03:41:03;;;;;;;0.80;0.80;;;;;;;0.76;100.00;101053.03;5094198;28;20043;-58
2023/12/18 03:43:30;;;;;;;0.70;0.70;;;;;;;0.67;100.00;101053.81;5070594;28;20033;-58
2023/12/18 03:45:57;;;;;;;0.77;0.77;;;;;;;0.69;100.00;101046.59;5078576;28;20329;-58
2023/12/18 03:48:24;;;;;;;0.70;0.70;;;;;;;0.61;100.00;101047.28;5091776;28;20404;-59
2023/12/18 03:50:53;;;;;;;0.70;0.70;;;;;;;0.57;100.00;101036.13;5073324;28;20046;-58
2023/12/18 03:53:20;;;;;;;0.70;0.70;;;;;;;0.53;100.00;101037.38;5091860;28;20039;-59
2023/12/18 03:55:47;;;;;;;0.60;0.60;;;;;;;0.56;100.00;101034.47;5098042;28;20550;-58
2023/12/18 03:58:14;;;;;;;0.70;0.70;;;;;;;0.54;100.00;101030.31;5091502;28;20055;-58
2023/12/18 04:00:42;;;;;;;0.80;0.80;;;;;;;0.49;100.00;101024.59;5093782;28;20046;-58
2023/12/18 04:03:09;;;;;;;0.77;0.77;;;;;;;0.45;100.00;101029.31;5087003;28;20505;-58
2023/12/18 04:05:41;;;;;;;0.70;0.70;;;;;;;0.40;100.00;101028.84;5091816;28;20038;-59
2023/12/18 04:08:10;;;;;;;0.60;0.60;;;;;;;0.41;100.00;101022.63;5093371;28;20633;-59
2023/12/18 04:10:38;;;;;;;0.75;0.75;;;;;;;0.42;100.00;101021.63;5071748;28;20796;-58
2023/12/18 04:13:05;;;;;;;0.65;0.65;;;;;;;0.45;100.00;101017.91;5093135;28;20510;-58
2023/12/18 04:15:32;;;;;;;0.80;0.80;;;;;;;0.46;100.00;101027.50;5088755;28;20051;-58
2023/12/18 04:17:59;;;;;;;0.65;0.65;;;;;;;0.42;100.00;101016.38;5090134;28;20131;-58
2023/12/18 04:20:26;;;;;;;0.70;0.70;;;;;;;0.44;100.00;101030.25;5092896;28;20130;-58
2023/12/18 04:22:54;;;;;;;0.70;0.70;;;;;;;0.45;100.00;101026.69;5091756;28;20383;-58
2023/12/18 04:25:25;;;;;;;0.70;0.70;;;;;;;0.47;100.00;101029.16;5088763;28;20043;-58
2023/12/18 04:27:52;;;;;;;0.75;0.75;;;;;;;0.46;100.00;101017.78;5085701;28;20044;-59
2023/12/18 04:30:19;;;;;;;0.90;0.90;;;;;;;0.46;100.00;101027.50;5091184;28;20044;-58
2023/12/18 04:32:47;;;;;;;0.70;0.70;;;;;;;0.47;100.00;101019.44;5092797;28;20031;-58
2023/12/18 04:35:14;;;;;;;0.70;0.70;;;;;;;0.49;100.00;101025.41;5085369;28;20611;-58
2023/12/18 04:37:42;;;;;;;0.70;0.70;;;;;;;0.53;100.00;101028.66;5086907;28;20586;-58
2023/12/18 04:40:10;;;;;;;0.80;0.80;;;;;;;0.50;100.00;101034.16;5091378;28;20043;-58
2023/12/18 04:42:39;;;;;;;0.80;0.80;;;;;;;0.50;100.00;101035.03;5096746;28;20537;-59
2023/12/18 04:45:07;;;;;;;0.70;0.70;;;;;;;0.53;100.00;101034.75;5094672;28;20074;-58
2023/12/18 04:47:34;;;;;;;0.57;0.57;;;;;;;0.58;100.00;101031.72;5070614;28;20398;-58
2023/12/18 04:50:01;;;;;;;0.63;0.63;;;;;;;0.52;100.00;101038.34;5096209;28;20120;-59
2023/12/18 04:52:29;;;;;;;0.82;0.82;;;;;;;0.52;100.00;101022.50;5064880;28;20042;-59
2023/12/18 04:54:56;;;;;;;0.77;0.77;;;;;;;0.54;100.00;101025.84;5093787;28;20051;-58
2023/12/18 04:57:23;;;;;;;0.70;0.70;;;;;;;0.50;100.00;101016.56;5098055;28;20501;-57
2023/12/18 04:59:51;;;;;;;0.70;0.70;;;;;;;0.49;100.00;101003.47;5095511;28;20130;-58
2023/12/18 05:02:30;;;;;;;0.70;0.70;;;;;;;0.52;100.00;100996.13;5081771;28;20457;-59
2023/12/18 05:04:57;;;;;;;0.70;0.70;;;;;;;0.48;100.00;101005.28;5100800;28;20046;-57
2023/12/18 05:07:26;;;;;;;0.63;0.63;;;;;;;0.51;100.00;100998.91;5093305;28;20047;-59
2023/12/18 05:09:53;;;;;;;0.70;0.70;;;;;;;0.53;100.00;101007.53;5099040;28;20847;-57
2023/12/18 05:12:20;;;;;;;0.60;0.60;;;;;;;0.51;100.00;101015.56;5094978;28;20549;-57
2023/12/18 05:14:47;;;;;;;0.80;0.80;;;;;;;0.51;100.00;101005.03;5094304;28;20075;-58
2023/12/18 05:17:15;;;;;;;0.80;0.80;;;;;;;0.60;100.00;101004.22;5095331;28;20529;-57
2023/12/18 05:19:42;;;;;;;0.90;0.90;;;;;;;0.53;100.00;101002.25;5093917;28;20028;-60
2023/12/18 05:22:09;;;;;;;0.73;0.73;;;;;;;0.55;100.00;101003.78;5088348;28;20032;-58
2023/12/18 05:24:37;;;;;;;0.50;0.50;;;;;;;0.50;100.00;100995.44;5080670;28;20152;-60
2023/12/18 05:27:07;;;;;;;0.70;0.70;;;;;;;0.48;100.00;100976.28;5090428;28;20047;-59
2023/12/18 05:29:39;;;;;;;0.80;0.80;;;;;;;0.47;100.00;100985.13;5073087;28;20792;-60
2023/12/18 05:32:07;;;;;;;0.80;0.80;;;;;;;0.46;100.00;100994.03;5090776;28;20036;-60
2023/12/18 05:34:36;;;;;;;0.68;0.68;;;;;;;0.51;100.00;101010.28;5091401;28;20040;-58
2023/12/18 05:37:03;;;;;;;0.80;0.80;;;;;;;0.56;100.00;101013.38;5096115;28;20511;-57
2023/12/18 05:39:38;;;;;;;0.70;0.70;;;;;;;0.51;100.00;101015.56;5097618;28;20417;-58
2023/12/18 05:42:08;;;;;;;0.70;0.70;;;;;;;0.48;100.00;101004.47;5096993;28;20094;-58
2023/12/18 05:44:37;;;;;;;0.75;0.75;;;;;;;0.49;100.00;101001.69;5092281;28;20318;-58
2023/12/18 05:47:04;;;;;;;0.70;0.70;;;;;;;0.43;100.00;100987.22;5085429;28;20501;-58
2023/12/18 05:49:32;;;;;;;0.80;0.80;;;;;;;0.44;100.00;100988.03;5093509;28;20047;-58
2023/12/18 05:52:02;;;;;;;0.60;0.60;;;;;;;0.42;100.00;100979.44;5089877;28;20040;-58
2023/12/18 05:54:29;;;;;;;0.70;0.70;;;;;;;0.37;100.00;100987.75;5092363;28;20513;-60
2023/12/18 05:56:56;;;;;;;0.70;0.70;;;;;;;0.36;100.00;100985.25;5096791;28;20043;-60
2023/12/18 05:59:23;;;;;;;0.73;0.73;;;;;;;0.43;100.00;100996.94;5097929;28;20043;-59
2023/12/18 06:01:50;;;;;;;0.75;0.75;;;;;;;0.40;100.00;100998.03;5094868;28;20063;-60
2023/12/18 06:04:18;;;;;;;0.90;0.90;;;;;;;0.36;100.00;100998.44;5095669;28;20363;-59
2023/12/18 06:06:45;;;;;;;0.80;0.80;;;;;;;0.35;100.00;100999.38;5096213;28;20073;-59
2023/12/18 06:09:14;;;;;;;0.60;0.60;;;;;;;0.34;100.00;100995.09;5080676;28;20066;-59
2023/12/18 06:11:41;;;;;;;0.70;0.70;;;;;;;0.32;100.00;100994.38;5088542;28;20610;-59
2023/12/18 06:14:08;;;;;;;0.63;0.63;;;;;;;0.34;100.00;100992.47;5092784;28;20127;-57
2023/12/18 06:16:37;;;;;;;0.60;0.60;;;;;;;0.32;100.00;100989.13;5084496;28;20553;-59
2023/12/18 06:19:04;;;;;;;0.60;0.60;;;;;;;0.35;100.00;100994.97;5089514;28;20064;-59
2023/12/18 06:21:31;;;;;;;0.70;0.70;;;;;;;0.38;100.00;100992.06;5090305;28;20127;-59
2023/12/18 06:23:59;;;;;;;0.60;0.60;;;;;;;0.33;100.00;101002.19;5090861;28;20439;-59
2023/12/18 06:26:27;;;;;;;0.80;0.80;;;;;;;0.35;100.00;100996.75;5082427;28;20146;-60
2023/12/18 06:28:54;;;;;;;0.77;0.77;;;;;;;0.34;100.00;100995.09;5094062;28;20048;-59
2023/12/18 06:31:21;;;;;;;0.75;0.75;;;;;;;0.35;100.00;100988.84;5087361;28;20276;-60
2023/12/18 06:33:48;;;;;;;0.70;0.70;;;;;;;0.33;100.00;100994.28;5090770;28;20046;-59
2023/12/18 06:36:15;;;;;;;0.85;0.85;;;;;;;0.35;100.00;100996.75;5074471;28;20505;-60
2023/12/18 06:38:42;;;;;;;0.70;0.70;;;;;;;0.29;100.00;100997.28;5093911;28;20051;-60
2023/12/18 06:41:10;;;;;;;0.85;0.85;;;;;;;0.30;100.00;101012.16;5091014;28;20043;-59
2023/12/18 06:43:42;;;;;;;0.70;0.70;;;;;;;0.26;100.00;101008.94;5089866;28;20129;-59
2023/12/18 06:46:10;;;;;;;0.90;0.90;;;;;;;0.24;100.00;101023.22;5069647;28;20680;-59
2023/12/18 06:48:40;;;;;;;0.75;0.75;;;;;;;0.20;100.00;101018.22;5091359;28;20048;-59
2023/12/18 06:51:10;;;;;;;0.90;0.90;;;;;;;0.31;100.00;101030.50;5091806;28;20047;-59
2023/12/18 06:53:38;;;;;;;0.77;0.77;;;;;;;0.19;100.00;101036.81;5080066;28;20040;-59
2023/12/18 06:56:05;;;;;;;0.70;0.70;;;;;;;0.19;100.00;101032.38;5079722;28;20044;-59
2023/12/18 06:58:32;;;;;;;0.80;0.80;;;;;;;0.17;100.00;101026.38;5089728;28;20093;-59
2023/12/18 07:01:01;;;;;;;0.90;0.90;;;;;;;0.19;100.00;101031.53;5095314;28;20036;-59
2023/12/18 07:03:28;;;;;;;0.80;0.80;;;;;;;0.23;100.00;101025.03;5088251;28;20075;-59
2023/12/18 07:05:56;;;;;;;0.80;0.80;;;;;;;0.09;100.00;101020.94;5086066;28;20074;-58
2023/12/18 07:08:23;;;;;;;0.80;0.80;;;;;;;0.13;100.00;101035.53;5082425;28;20048;-58
2023/12/18 07:10:50;;;;;;;0.70;0.70;;;;;;;0.12;100.00;101023.31;5083588;28;20378;-58
2023/12/18 07:13:17;;;;;;;0.80;0.80;;;;;;;0.10;100.00;101025.25;5097529;28;20047;-58
2023/12/18 07:15:44;;;;;;;0.80;0.80;;;;;;;0.09;100.00;101026.22;5074539;28;20046;-60
2023/12/18 07:18:13;;;;;;;0.68;0.68;;;;;;;0.09;100.00;101010.38;5095697;28;20044;-58
2023/12/18 07:20:42;;;;;;;0.73;0.73;;;;;;;0.10;100.00;101013.84;5090396;28;20091;-59
2023/12/18 07:23:10;;;;;;;0.90;0.90;;;;;;;0.06;100.00;101013.28;5096001;28;20052;-59
2023/12/18 07:25:37;;;;;;;0.80;0.80;;;;;;;0.08;100.00;100998.19;5093594;28;20054;-58
2023/12/18 07:28:07;;;;;;;0.80;0.80;;;;;;;0.07;100.00;101007.03;5072508;28;20566;-60
2023/12/18 07:30:35;;;;;;;0.82;0.82;;;;;;;0.09;100.00;101009.56;5087451;28;20131;-58
2023/12/18 07:33:02;;;;;;;0.80;0.80;;;;;;;0.13;100.00;101006.53;5084223;28;20232;-58
2023/12/18 07:35:30;;;;;;;0.70;0.70;;;;;;;0.08;100.00;101021.91;5091427;28;20046;-59
2023/12/18 07:37:58;;;;;;;0.80;0.80;;;;;;;0.12;100.00;101015.38;5080989;28;20032;-59
2023/12/18 07:40:24;;;;;;;1.00;1.00;;;;;;;0.13;100.00;101032.91;5090047;28;20545;-59
2023/12/18 07:42:52;;;;;;;0.80;0.80;;;;;;;0.13;100.00;101026.81;5091643;28;20067;-58
2023/12/18 07:45:19;;;;;;;0.80;0.80;;;;;;;0.14;100.00;101028.47;5086956;28;20044;-57
2023/12/18 07:47:46;;;;;;;0.90;0.90;;;;;;;0.14;100.00;101025.81;5082232;28;20118;-59
2023/12/18 07:50:13;;;;;;;0.98;0.98;;;;;;;0.13;100.00;101030.25;5093684;28;20381;-59
2023/12/18 07:52:43;;;;;;;0.80;0.80;;;;;;;0.13;100.00;101014.44;5091203;28;20051;-58
2023/12/18 07:55:10;;;;;;;0.77;0.77;;;;;;;0.18;100.00;101004.34;5090264;28;20052;-59
2023/12/18 07:57:39;;;;;;;0.95;0.95;;;;;;;0.19;100.00;101027.09;5092790;28;20051;-59
2023/12/18 08:00:08;;;;;;;0.90;0.90;;;;;;;0.18;100.00;101022.78;5081769;28;20044;-60
2023/12/18 08:02:38;;;;;;;0.90;0.90;;;;;;;0.19;100.00;101016.53;5092389;28;20044;-59
2023/12/18 08:05:06;;;;;;;0.80;0.80;;;;;;;0.23;100.00;101005.75;5092254;28;20055;-59
2023/12/18 08:07:33;;;;;;;0.80;0.80;;;;;;;0.20;100.00;101015.59;5076108;28;20048;-59
2023/12/18 08:10:02;;;;;;;0.90;0.90;;;;;;;0.25;100.00;101006.44;5091906;28;20047;-59
2023/12/18 08:12:30;;;;;;;0.80;0.80;;;;;;;0.30;100.00;101014.78;5070595;28;20426;-59
2023/12/18 08:14:57;;;;;;;0.90;0.90;;;;;;;0.34;100.00;101008.28;5092998;28;20049;-59
2023/12/18 08:17:24;;;;;;;0.90;0.90;;;;;;;0.25;100.00;101022.25;5090250;28;20143;-59
2023/12/18 08:19:50;;;;;;;0.90;0.90;;;;;;;0.30;100.00;101022.69;5087419;28;20509;-59
2023/12/18 08:22:17;;;;;;;0.70;0.70;;;;;;;0.36;100.00;101019.53;5068894;28;20074;-59
2023/12/18 08:24:44;;;;;;;0.80;0.80;;;;;;;0.39;100.00;101025.38;5092455;28;20067;-59
2023/12/18 08:27:13;;;;;;;0.90;0.90;;;;;;;0.49;100.00;101022.78;5071846;28;20047;-59
2023/12/18 08:29:40;;;;;;;0.80;0.80;;;;;;;0.55;100.00;101017.00;5083558;28;20051;-59
2023/12/18 08:32:07;;;;;;;0.70;0.70;;;;;;;0.40;100.00;101013.00;5091807;28;20126;-59
2023/12/18 08:34:35;;;;;;;0.80;0.80;;;;;;;0.52;100.00;101011.13;5086222;28;20071;-59
2023/12/18 08:37:03;;;;;;;0.80;0.80;;;;;;;0.41;100.00;101014.69;5094280;28;20054;-59
2023/12/18 08:39:30;;;;;;;0.73;0.73;;;;;;;0.54;100.00;101017.94;5087329;28;20063;-59
2023/12/18 08:41:57;;;;;;;0.70;0.70;;;;;;;0.48;100.00;101015.84;5097963;28;20117;-59
2023/12/18 08:44:25;;;;;;;0.70;0.70;;;;;;;0.60;100.00;101013.91;5070296;28;20554;-59
2023/12/18 08:46:52;;;;;;;0.80;0.80;;;;;;;0.54;100.00;101015.28;5093540;28;20055;-59
2023/12/18 08:49:19;;;;;;;0.70;0.70;;;;;;;0.54;100.00;101017.94;5089935;28;20043;-61
2023/12/18 08:51:46;;;;;;;0.80;0.80;;;;;;;0.65;100.00;101017.03;5092335;28;20043;-59
2023/12/18 08:54:13;;;;;;;0.80;0.80;;;;;;;0.60;100.00;101004.22;5080358;28;20058;-61
2023/12/18 08:56:41;;;;;;;0.90;0.90;;;;;;;0.90;100.00;100996.34;5087570;28;20140;-58
2023/12/18 08:59:08;;;;;;;0.88;0.88;;;;;;;0.90;100.00;101018.34;5060365;28;20052;-58
2023/12/18 09:01:38;;;;;;;0.70;0.70;;;;;;;1.19;100.00;101009.59;5090455;28;21571;-58
2023/12/18 09:04:06;;;;;;;0.88;0.88;;;;;;;1.44;100.00;101016.16;5087905;28;20096;-59
2023/12/18 09:06:36;;;;;;;0.80;0.80;;;;;;;1.65;100.00;101016.00;5087844;28;20051;-59
2023/12/18 09:09:03;;;;;;;;;;;;;;;1.48;100.00;101015.72;5089493;28;20047;-59
2023/12/18 09:11:33;;;;;;;0.80;0.80;;;;;;;1.74;100.00;101015.16;5071996;28;19926;-59
2023/12/18 09:14:00;;;;;;;0.70;0.70;;;;;;;1.66;100.00;101012.38;5086273;28;20072;-59
2023/12/18 09:16:27;;;;;;;0.80;0.80;;;;;;;2.38;100.00;100995.91;5087871;28;20145;-58
2023/12/18 09:18:56;;;;;;;0.90;0.90;;;;;;;2.35;100.00;101008.59;5086394;28;20513;-59
2023/12/18 09:21:24;;;;;;;0.70;0.70;;;;;;;2.02;100.00;100994.06;5088708;28;20044;-60
2023/12/18 09:23:51;;;;;;;0.90;0.90;;;;;;;1.80;100.00;100989.94;5088350;28;20059;-60
2023/12/18 09:26:18;;;;;;;0.80;0.80;;;;;;;2.24;100.00;100985.78;5092100;28;20066;-60
2023/12/18 09:28:45;;;;;;;0.80;0.80;;;;;;;2.34;100.00;101001.63;5089301;28;20130;-58
2023/12/18 09:31:12;;;;;;;0.80;0.80;;;;;;;2.35;100.00;100987.44;5092277;28;20043;-60
2023/12/18 09:33:39;;;;;;;0.80;0.80;;;;;;;2.15;100.00;100981.38;5095021;28;20043;-59
2023/12/18 09:36:09;;;;;;;0.80;0.80;;;;;;;2.33;100.00;100990.22;5100565;28;20032;-59
2023/12/18 09:38:37;;;;;;;0.60;0.60;;;;;;;2.28;100.00;100986.34;5090686;28;20047;-59
2023/12/18 09:41:04;;;;;;;0.80;0.80;;;;;;;2.14;100.00;100974.41;5088703;28;20379;-60
2023/12/18 09:43:31;;;;;;;0.75;0.75;;;;;;;2.66;100.00;100985.31;5072802;28;20071;-61
2023/12/18 09:45:59;;;;;;;0.70;0.70;;;;;;;2.43;100.00;100974.28;5095171;28;20130;-59
2023/12/18 09:48:26;;;;;;;0.63;0.63;;;;;;;2.31;100.00;100981.59;5090792;28;20494;-58
2023/12/18 09:50:53;;;;;;;0.80;0.80;;;;;;;3.05;100.00;100977.13;5094877;28;20048;-58
2023/12/18 09:53:21;;;;;;;0.60;0.60;;;;;;;2.39;100.00;100970.25;5099933;28;20134;-59
2023/12/18 09:55:51;;;;;;;0.80;0.80;;;;;;;2.69;100.00;100978.88;5100528;28;20035;-59
2023/12/18 09:58:19;;;;;;;0.70;0.70;;;;;;;2.52;100.00;100967.28;5095651;28;20088;-59
2023/12/18 10:00:47;;;;;;;0.70;0.70;;;;;;;2.42;100.00;100966.50;5092108;28;20055;-58
2023/12/18 10:03:16;;;;;;;0.80;0.80;;;;;;;2.29;100.00;100967.66;5090435;28;20044;-57
2023/12/18 10:05:43;;;;;;;0.70;0.70;;;;;;;2.88;100.00;100965.53;5078784;28;20035;-58
2023/12/18 10:08:10;;;;;;;0.80;0.80;;;;;;;2.69;100.00;100958.53;5095369;28;20098;-58
2023/12/18 10:10:38;;;;;;;0.80;0.80;;;;;;;2.71;100.00;100947.81;5068772;28;20734;-58
2023/12/18 10:13:07;;;;;;;0.80;0.80;;;;;;;3.09;100.00;100959.94;5092431;28;20040;-58
2023/12/18 10:15:35;;;;;;;0.77;0.77;;;;;;;3.20;100.00;100958.91;5089961;28;20040;-59
2023/12/18 10:18:03;;;;;;;0.75;0.75;;;;;;;2.98;100.00;100973.41;5094438;28;20077;-59
2023/12/18 10:20:30;;;;;;;0.73;0.73;;;;;;;3.12;100.00;100964.09;5096607;28;20054;-60
2023/12/18 10:22:57;;;;;;;0.70;0.70;;;;;;;3.30;100.00;100956.16;5087341;28;20481;-58
2023/12/18 10:25:25;;;;;;;0.65;0.65;;;;;;;3.30;100.00;100956.16;5083437;28;20051;-59
2023/12/18 10:27:56;;;;;;;0.60;0.60;;;;;;;3.49;100.00;100958.63;5094143;28;20047;-59
2023/12/18 10:30:25;;;;;;;0.57;0.57;;;;;;;2.99;100.00;100962.66;5094197;28;20151;-60
2023/12/18 10:32:53;;;;;;;0.70;0.70;;;;;;;3.29;100.00;100957.13;5089940;28;20073;-58
2023/12/18 10:35:22;;;;;;;0.80;0.80;;;;;;;3.12;100.00;100953.50;5089742;28;20366;-59
2023/12/18 10:37:50;;;;;;;0.70;0.70;;;;;;;3.21;100.00;100953.41;5094178;28;20050;-59
2023/12/18 10:40:19;;;;;;;0.70;0.70;;;;;;;3.47;100.00;100950.00;5087334;28;20627;-60
2023/12/18 10:42:47;;;;;;;0.75;0.75;;;;;;;3.07;100.00;100961.94;5087838;28;20040;-59
2023/12/18 10:45:16;;;;;;;0.57;0.57;;;;;;;3.32;100.00;100962.13;5094166;28;20120;-58
2023/12/18 10:47:43;;;;;;;0.63;0.63;;;;;;;3.57;100.00;100964.00;5093328;28;20597;-60
2023/12/18 10:50:11;;;;;;;0.70;0.70;;;;;;;3.62;100.00;100956.41;5096142;28;20218;-59
2023/12/18 10:52:38;;;;;;;0.80;0.80;;;;;;;3.09;100.00;100946.69;5096291;28;20036;-61
2023/12/18 10:55:10;;;;;;;0.60;0.60;;;;;;;3.30;100.00;100962.28;5090461;28;20039;-59
2023/12/18 10:57:37;;;;;;;0.70;0.70;;;;;;;3.45;100.00;100949.31;5089597;28;20054;-59
2023/12/18 11:00:05;;;;;;;0.55;0.55;;;;;;;3.37;100.00;100949.25;5094556;28;20046;-59
2023/12/18 11:02:35;;;;;;;0.60;0.60;;;;;;;3.72;100.00;100948.38;5077331;28;20085;-58
2023/12/18 11:05:02;;;;;;;0.65;0.65;;;;;;;3.64;100.00;100940.34;5092161;28;20069;-59
2023/12/18 11:07:31;;;;;;;0.63;0.63;;;;;;;3.44;100.00;100945.00;5093230;28;20134;-60
2023/12/18 11:09:59;;;;;;;0.70;0.70;;;;;;;3.17;100.00;100941.47;5094888;28;20052;-59
2023/12/18 11:12:26;;;;;;;0.68;0.68;;;;;;;2.84;100.00;100928.91;5076748;28;20124;-59
2023/12/18 11:14:59;;;;;;;0.60;0.60;;;;;;;3.28;100.00;100926.31;5091252;28;20051;-60
2023/12/18 11:17:31;;;;;;;0.50;0.50;;;;;;;2.98;100.00;100925.72;5089841;28;20048;-58
2023/12/18 11:20:02;;;;;;;0.60;0.60;;;;;;;3.24;100.00;100920.47;5075041;28;20062;-58
2023/12/18 11:22:36;;;;;;;;;;;;;;;3.24;100.00;100918.69;5098176;28;20047;-58
2023/12/18 11:25:04;;;;;;;0.70;0.70;;;;;;;3.20;100.00;100908.53;5090183;28;19981;-58
2023/12/18 11:27:31;;;;;;;0.50;0.50;;;;;;;3.02;100.00;100911.19;5086965;28;20586;-59
2023/12/18 11:29:58;;;;;;;0.50;0.50;;;;;;;3.13;100.00;100908.31;5090760;28;20432;-60